createdAt,value
2023-01-30T00:04:41.604Z,39.37
2023-01-30T00:09:47.669Z,39.25
2023-01-30T00:14:50.535Z,39.25
2023-01-30T00:19:53.305Z,39.42
2023-01-30T00:24:57.467Z,39.27
2023-01-30T00:30:03.494Z,39.07
2023-01-30T00:35:07.800Z,39.15
2023-01-30T00:40:13.258Z,39.56
2023-01-30T00:45:33.969Z,39.49
2023-01-30T00:50:43.345Z,39.52
2023-01-30T00:55:49.307Z,39.66
2023-01-30T01:00:52.171Z,39.47
2023-01-30T01:05:54.924Z,39.75
2023-01-30T01:10:59.059Z,39.79
2023-01-30T01:16:01.842Z,40.07
2023-01-30T01:21:04.881Z,40.25
2023-01-30T01:26:09.003Z,40.37
2023-01-30T01:31:11.926Z,40.52
2023-01-30T01:36:29.275Z,40.75
2023-01-30T01:41:38.872Z,40.93
2023-01-30T01:46:44.515Z,41.09
2023-01-30T01:51:50.140Z,41.24
2023-01-30T01:56:54.256Z,41.33
2023-01-30T02:01:58.603Z,41.54
2023-01-30T02:07:01.905Z,42.06
2023-01-30T02:12:06.321Z,42.21
2023-01-30T02:17:09.080Z,42.17
2023-01-30T02:22:19.117Z,42.26
2023-01-30T02:27:31.544Z,42.40
2023-01-30T02:32:38.135Z,42.41
2023-01-30T02:37:48.618Z,42.65
2023-01-30T02:42:54.159Z,42.86
2023-01-30T02:48:01.219Z,43.09
2023-01-30T02:53:05.362Z,43.18
2023-01-30T02:58:09.008Z,42.95
2023-01-30T03:03:24.061Z,43.24
2023-01-30T03:08:30.791Z,43.52
2023-01-30T03:13:42.139Z,43.35
2023-01-30T03:18:46.512Z,43.47
2023-01-30T03:23:52.233Z,43.72
2023-01-30T03:28:55.660Z,43.77
2023-01-30T03:33:59.877Z,43.62
2023-01-30T03:39:02.926Z,43.62
2023-01-30T03:44:06.261Z,43.86
2023-01-30T03:49:10.610Z,44.08
2023-01-30T03:54:13.407Z,44.26
2023-01-30T03:59:16.198Z,44.41
2023-01-30T04:04:27.580Z,44.12
2023-01-30T04:09:31.866Z,44.25
2023-01-30T04:14:35.004Z,44.24
2023-01-30T04:20:14.318Z,44.74
2023-01-30T04:25:23.060Z,44.79
2023-01-30T04:30:26.381Z,44.77
2023-01-30T04:35:40.305Z,44.52
2023-01-30T04:40:50.691Z,44.48
2023-01-30T04:45:53.882Z,44.09
2023-01-30T04:50:58.107Z,44.16
2023-01-30T04:56:01.113Z,44.05
2023-01-30T05:01:14.702Z,43.97
2023-01-30T05:06:18.821Z,44.03
2023-01-30T05:11:22.237Z,44.16
2023-01-30T05:16:25.098Z,44.15
2023-01-30T05:21:29.458Z,43.88
2023-01-30T05:26:32.247Z,44.11
2023-01-30T05:31:35.624Z,44.23
2023-01-30T05:36:39.926Z,43.85
2023-01-30T05:41:42.680Z,43.92
2023-01-30T05:46:45.665Z,43.68
2023-01-30T05:51:51.496Z,43.85
2023-01-30T05:56:54.405Z,43.83
2023-01-30T06:01:57.137Z,43.53
2023-01-30T06:07:01.389Z,43.81
2023-01-30T06:12:04.453Z,43.80
2023-01-30T06:17:07.290Z,43.71
2023-01-30T06:22:11.484Z,43.65
2023-01-30T06:27:14.865Z,43.73
2023-01-30T06:32:17.619Z,43.77
2023-01-30T06:37:21.754Z,43.28
2023-01-30T06:42:24.594Z,43.72
2023-01-30T06:47:27.489Z,43.50
2023-01-30T06:52:31.680Z,43.78
2023-01-30T06:57:34.481Z,43.64
2023-01-30T07:02:37.260Z,43.90
2023-01-30T07:07:41.391Z,43.69
2023-01-30T07:12:44.319Z,43.54
2023-01-30T07:17:47.133Z,43.75
2023-01-30T07:22:52.188Z,43.61
2023-01-30T07:27:55.556Z,43.76
2023-01-30T07:32:59.225Z,43.79
2023-01-30T07:38:03.463Z,43.77
2023-01-30T07:43:07.564Z,43.93
2023-01-30T07:48:11.556Z,44.32
2023-01-30T07:53:16.405Z,44.67
2023-01-30T07:58:19.312Z,44.23
2023-01-30T08:03:22.100Z,44.16
2023-01-30T08:08:26.230Z,44.25
2023-01-30T08:13:31.437Z,43.81
2023-01-30T08:18:34.737Z,43.07
2023-01-30T08:23:38.946Z,42.81
2023-01-30T08:28:41.750Z,42.87
2023-01-30T08:33:44.572Z,42.83
2023-01-30T08:38:48.747Z,42.81
2023-01-30T08:43:51.616Z,42.51
2023-01-30T08:48:54.436Z,42.53
2023-01-30T08:53:58.541Z,42.86
2023-01-30T08:59:01.478Z,42.36
2023-01-30T09:04:04.265Z,42.58
2023-01-30T09:09:08.533Z,42.84
2023-01-30T09:14:11.365Z,42.65
2023-01-30T09:19:14.149Z,42.48
2023-01-30T09:24:18.319Z,42.36
2023-01-30T09:29:21.440Z,41.99
2023-01-30T09:34:27.470Z,40.68
2023-01-30T09:39:31.621Z,37.95
2023-01-30T09:45:00.661Z,34.41
2023-01-30T09:50:08.904Z,34.90
2023-01-30T09:55:17.724Z,35.99
2023-01-30T10:00:23.946Z,36.84
2023-01-30T10:05:26.842Z,36.59
2023-01-30T10:10:39.224Z,36.72
2023-01-30T10:15:49.050Z,37.07
2023-01-30T10:20:54.127Z,36.95
2023-01-30T10:26:03.537Z,37.15
2023-01-30T10:31:09.816Z,37.32
2023-01-30T10:36:13.622Z,37.09
2023-01-30T10:41:23.946Z,37.26
2023-01-30T10:46:34.671Z,37.81
2023-01-30T10:51:43.164Z,37.69
2023-01-30T10:56:50.086Z,37.90
2023-01-30T11:01:59.677Z,37.86
2023-01-30T11:07:02.780Z,37.89
2023-01-30T11:12:07.298Z,38.04
2023-01-30T11:17:10.066Z,38.14
2023-01-30T11:22:14.675Z,38.34
2023-01-30T11:27:20.557Z,38.09
2023-01-30T11:32:25.992Z,37.97
2023-01-30T11:37:33.168Z,38.01
2023-01-30T11:42:37.549Z,38.09
2023-01-30T11:47:43.215Z,38.04
2023-01-30T11:52:50.598Z,38.10
2023-01-30T11:57:55.147Z,37.93
2023-01-30T12:02:58.119Z,34.64
2023-01-30T12:08:15.634Z,36.79
2023-01-30T12:13:22.771Z,37.13
2023-01-30T12:18:28.288Z,36.93
2023-01-30T12:23:37.405Z,37.14
2023-01-30T12:28:43.394Z,37.11
2023-01-30T12:33:47.872Z,37.21
2023-01-30T12:38:58.705Z,37.07
2023-01-30T12:44:26.672Z,37.04
2023-01-30T12:49:38.841Z,36.84
2023-01-30T12:54:47.350Z,36.86
2023-01-30T12:59:57.085Z,37.05
2023-01-30T13:05:07.863Z,37.04
2023-01-30T13:10:16.266Z,36.84
2023-01-30T13:15:23.659Z,36.99
2023-01-30T13:20:43.197Z,37.04
2023-01-30T13:25:49.171Z,37.01
2023-01-30T13:30:53.508Z,36.79
2023-01-30T13:35:58.389Z,37.11
2023-01-30T13:41:01.394Z,37.56
2023-01-30T13:46:08.536Z,37.46
2023-01-30T13:51:21.520Z,37.59
2023-01-30T13:56:40.709Z,37.77
2023-01-30T14:02:16.680Z,37.86
2023-01-30T14:07:23.743Z,37.70
2023-01-30T14:12:35.839Z,38.19
2023-01-30T14:17:40.041Z,38.31
2023-01-30T14:22:51.256Z,38.76
2023-01-30T14:27:54.948Z,38.78
2023-01-30T14:33:00.194Z,38.61
2023-01-30T14:38:10.845Z,38.74
2023-01-30T14:43:52.756Z,38.85
2023-01-30T14:49:00.772Z,39.00
2023-01-30T14:54:04.791Z,39.51
2023-01-30T14:59:11.169Z,35.77
2023-01-30T15:04:15.657Z,38.66
2023-01-30T15:09:19.683Z,38.84
2023-01-30T15:14:24.159Z,39.54
2023-01-30T15:19:38.902Z,40.10
2023-01-30T15:25:07.531Z,40.42
2023-01-30T15:30:19.233Z,40.35
2023-01-30T15:35:27.815Z,40.15
2023-01-30T15:40:30.812Z,40.18
2023-01-30T15:45:38.057Z,39.81
2023-01-30T15:50:48.287Z,40.03
2023-01-30T15:55:51.064Z,40.08
2023-01-30T16:00:55.009Z,39.80
2023-01-30T16:05:59.386Z,40.11
2023-01-30T16:11:02.248Z,39.65
2023-01-30T16:16:07.308Z,39.61
2023-01-30T16:21:16.757Z,39.62
2023-01-30T16:26:21.732Z,39.63
2023-01-30T16:31:25.967Z,39.68
2023-01-30T16:36:39.888Z,39.22
2023-01-30T16:41:43.265Z,39.30
2023-01-30T16:46:48.353Z,39.32
2023-01-30T16:52:00.611Z,39.29
2023-01-30T16:57:03.518Z,39.24
2023-01-30T17:02:06.638Z,39.02
2023-01-30T17:07:31.166Z,39.59
2023-01-30T17:12:38.729Z,39.04
2023-01-30T17:17:41.803Z,39.07
2023-01-30T17:22:46.667Z,39.80
2023-01-30T17:27:49.444Z,40.50
2023-01-30T17:32:52.295Z,40.92
2023-01-30T17:38:04.771Z,40.54
2023-01-30T17:43:09.611Z,40.51
2023-01-30T17:48:13.207Z,40.39
2023-01-30T17:53:17.491Z,40.31
2023-01-30T17:58:20.245Z,40.01
2023-01-30T18:03:23.029Z,40.13
2023-01-30T18:08:27.191Z,39.81
2023-01-30T18:13:29.903Z,39.66
2023-01-30T18:18:32.975Z,39.94
2023-01-30T18:23:37.724Z,39.75
2023-01-30T18:28:40.651Z,39.48
2023-01-30T18:33:45.481Z,39.36
2023-01-30T18:38:49.704Z,39.64
2023-01-30T18:43:54.922Z,39.18
2023-01-30T18:48:57.727Z,39.14
2023-01-30T18:54:02.106Z,39.23
2023-01-30T18:59:05.474Z,39.16
2023-01-30T19:04:09.043Z,39.04
2023-01-30T19:09:15.129Z,38.67
2023-01-30T19:14:18.281Z,38.96
2023-01-30T19:19:21.498Z,39.03
2023-01-30T19:24:25.984Z,38.85
2023-01-30T19:29:28.762Z,38.86
2023-01-30T19:34:31.634Z,39.10
2023-01-30T19:39:35.765Z,38.98
2023-01-30T19:44:40.861Z,38.88
2023-01-30T19:49:43.740Z,38.78
2023-01-30T19:54:49.126Z,38.83
2023-01-30T19:59:51.883Z,38.71
2023-01-30T20:04:54.681Z,39.01
2023-01-30T20:09:58.785Z,38.76
2023-01-30T20:15:02.806Z,38.75
2023-01-30T20:20:07.844Z,38.73
2023-01-30T20:25:12.311Z,38.65
2023-01-30T20:30:16.334Z,38.87
2023-01-30T20:35:19.231Z,38.93
2023-01-30T20:40:23.539Z,38.76
2023-01-30T20:45:26.476Z,38.85
2023-01-30T20:50:29.224Z,39.03
2023-01-30T20:55:33.569Z,38.47
2023-01-30T21:00:36.344Z,38.79
2023-01-30T21:05:39.501Z,39.04
2023-01-30T21:10:46.695Z,39.16
2023-01-30T21:15:49.532Z,38.91
2023-01-30T21:20:52.365Z,39.10
2023-01-30T21:25:56.682Z,39.01
2023-01-30T21:31:05.052Z,39.14
2023-01-30T21:36:08.436Z,39.14
2023-01-30T21:41:33.674Z,39.26
2023-01-30T21:46:38.915Z,39.49
2023-01-30T21:51:41.930Z,39.72
2023-01-30T21:56:46.153Z,39.58
2023-01-30T22:01:48.960Z,39.83
2023-01-30T22:06:51.808Z,39.87
2023-01-30T22:11:55.991Z,39.56
2023-01-30T22:16:58.805Z,39.91
2023-01-30T22:22:01.922Z,39.75
2023-01-30T22:27:06.081Z,39.87
2023-01-30T22:32:08.900Z,39.94
2023-01-30T22:37:11.735Z,39.89
2023-01-30T22:42:15.989Z,40.18
2023-01-30T22:47:18.830Z,40.14
2023-01-30T22:52:21.808Z,40.64
2023-01-30T22:57:25.916Z,40.76
2023-01-30T23:02:28.727Z,40.92
2023-01-30T23:07:31.517Z,40.79
2023-01-30T23:12:53.309Z,41.02
2023-01-30T23:18:13.784Z,41.24
2023-01-30T23:23:16.596Z,41.20
2023-01-30T23:28:20.728Z,41.37
2023-01-30T23:33:23.546Z,41.87
2023-01-30T23:38:26.426Z,42.04
2023-01-30T23:43:31.163Z,42.05
2023-01-30T23:48:33.916Z,41.80
2023-01-30T23:53:36.700Z,42.18
2023-01-30T23:58:40.973Z,42.63
